createdAt,value
2022-11-05T00:01:52.524Z,2.58
2022-11-05T00:04:37.318Z,2.28
2022-11-05T00:07:28.957Z,2.50
2022-11-05T00:09:59.124Z,2.30
2022-11-05T00:12:54.514Z,2.40
2022-11-05T00:15:39.472Z,2.22
2022-11-05T00:18:05.710Z,2.25
2022-11-05T00:20:31.958Z,2.08
2022-11-05T00:23:20.522Z,2.35
2022-11-05T00:25:55.882Z,2.65
2022-11-05T00:28:22.401Z,2.05
2022-11-05T00:30:48.807Z,2.42
2022-11-05T00:33:15.090Z,1.98
2022-11-05T00:35:41.315Z,1.95
2022-11-05T00:38:07.528Z,2.50
2022-11-05T00:40:34.062Z,1.92
2022-11-05T00:43:18.930Z,2.00
2022-11-05T00:45:45.181Z,2.05
2022-11-05T00:48:30.214Z,2.03
2022-11-05T00:50:56.468Z,1.90
2022-11-05T00:53:22.714Z,2.00
2022-11-05T00:55:48.938Z,2.00
2022-11-05T00:58:16.760Z,2.08
2022-11-05T01:00:44.164Z,1.70
2022-11-05T01:03:12.341Z,1.90
2022-11-05T01:05:43.013Z,2.28
2022-11-05T01:08:09.877Z,1.80
2022-11-05T01:10:50.268Z,1.88
2022-11-05T01:13:17.944Z,1.63
2022-11-05T01:15:44.866Z,1.70
2022-11-05T01:18:11.141Z,1.88
2022-11-05T01:20:37.482Z,1.50
2022-11-05T01:23:05.473Z,1.42
2022-11-05T01:25:35.249Z,1.63
2022-11-05T01:28:04.553Z,1.88
2022-11-05T01:30:31.314Z,1.50
2022-11-05T01:32:57.586Z,1.25
2022-11-05T01:35:23.888Z,1.55
2022-11-05T01:37:50.145Z,1.58
2022-11-05T01:40:18.052Z,1.58
2022-11-05T01:42:44.504Z,1.65
2022-11-05T01:45:12.761Z,1.30
2022-11-05T01:47:51.214Z,1.60
2022-11-05T01:50:35.894Z,1.38
2022-11-05T01:53:02.107Z,1.30
2022-11-05T01:55:30.327Z,1.40
2022-11-05T01:57:58.625Z,1.50
2022-11-05T02:00:24.910Z,1.48
2022-11-05T02:02:51.233Z,1.20
2022-11-05T02:05:17.721Z,1.50
2022-11-05T02:07:44.898Z,1.30
2022-11-05T02:10:15.793Z,1.20
2022-11-05T02:12:43.405Z,1.38
2022-11-05T02:15:11.397Z,1.25
2022-11-05T02:17:46.747Z,1.30
2022-11-05T02:20:18.696Z,1.27
2022-11-05T02:22:50.762Z,1.30
2022-11-05T02:25:26.086Z,1.30
2022-11-05T02:27:52.299Z,1.10
2022-11-05T02:30:18.545Z,1.30
2022-11-05T02:32:56.866Z,1.35
2022-11-05T02:35:32.326Z,1.38
2022-11-05T02:38:04.534Z,1.40
2022-11-05T02:40:33.502Z,1.05
2022-11-05T02:43:03.634Z,1.10
2022-11-05T02:45:41.697Z,1.10
2022-11-05T02:48:14.305Z,1.30
2022-11-05T02:50:54.761Z,1.05
2022-11-05T02:53:28.997Z,1.05
2022-11-05T02:56:03.754Z,1.00
2022-11-05T02:58:30.540Z,0.90
2022-11-05T03:00:57.801Z,1.10
2022-11-05T03:03:43.534Z,1.15
2022-11-05T03:06:27.864Z,0.90
2022-11-05T03:08:54.100Z,1.20
2022-11-05T03:11:21.707Z,1.13
2022-11-05T03:13:50.697Z,1.17
2022-11-05T03:16:30.675Z,0.98
2022-11-05T03:19:06.697Z,0.98
2022-11-05T03:21:35.978Z,1.15
2022-11-05T03:24:05.832Z,0.90
2022-11-05T03:26:35.445Z,1.08
2022-11-05T03:29:06.568Z,1.08
2022-11-05T03:31:34.835Z,1.10
2022-11-05T03:34:01.605Z,1.00
2022-11-05T03:36:33.083Z,1.20
2022-11-05T03:39:02.554Z,0.90
2022-11-05T03:41:29.354Z,0.90
2022-11-05T03:43:57.770Z,1.13
2022-11-05T03:46:32.813Z,1.27
2022-11-05T03:49:01.694Z,1.00
2022-11-05T03:51:48.427Z,1.00
2022-11-05T03:54:15.018Z,0.90
2022-11-05T03:56:44.130Z,0.93
2022-11-05T03:59:10.960Z,1.00
2022-11-05T04:01:38.353Z,0.95
2022-11-05T04:04:07.477Z,1.10
2022-11-05T04:06:52.450Z,0.90
2022-11-05T04:09:37.260Z,0.90
2022-11-05T04:12:22.181Z,0.82
2022-11-05T04:14:48.419Z,0.93
2022-11-05T04:17:14.774Z,1.00
2022-11-05T04:20:00.983Z,0.95
2022-11-05T04:22:46.973Z,0.90
2022-11-05T04:25:14.046Z,0.77
2022-11-05T04:27:40.308Z,0.90
2022-11-05T04:30:18.911Z,0.95
2022-11-05T04:33:03.434Z,0.80
2022-11-05T04:35:31.339Z,0.80
2022-11-05T04:37:57.602Z,0.90
2022-11-05T04:40:23.941Z,0.88
2022-11-05T04:42:50.156Z,0.70
2022-11-05T04:45:16.426Z,0.90
2022-11-05T04:47:42.805Z,0.90
2022-11-05T04:50:10.509Z,0.60
2022-11-05T04:52:36.749Z,1.10
2022-11-05T04:55:03.209Z,0.75
2022-11-05T04:57:29.428Z,0.88
2022-11-05T04:59:55.655Z,0.77
2022-11-05T05:02:21.991Z,1.02
2022-11-05T05:04:48.277Z,0.65
2022-11-05T05:07:14.490Z,0.85
2022-11-05T05:09:40.721Z,1.00
2022-11-05T05:12:07.886Z,0.90
2022-11-05T05:14:34.624Z,0.80
2022-11-05T05:17:00.837Z,0.80
2022-11-05T05:19:27.094Z,0.88
2022-11-05T05:21:53.375Z,0.90
2022-11-05T05:24:20.948Z,0.73
2022-11-05T05:26:48.637Z,0.90
2022-11-05T05:29:15.778Z,0.90
2022-11-05T05:31:42.097Z,0.80
2022-11-05T05:34:10.485Z,0.73
2022-11-05T05:36:36.748Z,0.90
2022-11-05T05:39:05.788Z,0.80
2022-11-05T05:41:32.150Z,0.80
2022-11-05T05:43:58.381Z,0.80
2022-11-05T05:46:25.042Z,0.80
2022-11-05T05:48:52.159Z,0.70
2022-11-05T05:51:19.023Z,0.90
2022-11-05T05:53:45.597Z,0.68
2022-11-05T05:56:14.805Z,0.90
2022-11-05T05:58:41.503Z,1.10
2022-11-05T06:01:17.191Z,1.10
2022-11-05T06:03:45.080Z,0.68
2022-11-05T06:06:15.037Z,0.80
2022-11-05T06:08:42.169Z,0.95
2022-11-05T06:11:08.844Z,0.60
2022-11-05T06:13:36.021Z,0.70
2022-11-05T06:16:02.801Z,0.60
2022-11-05T06:18:30.161Z,0.77
2022-11-05T06:21:00.840Z,0.90
2022-11-05T06:23:27.091Z,0.77
2022-11-05T06:25:53.305Z,0.73
2022-11-05T06:28:19.526Z,0.60
2022-11-05T06:30:50.310Z,0.68
2022-11-05T06:33:16.563Z,0.95
2022-11-05T06:35:42.846Z,0.80
2022-11-05T06:38:09.094Z,0.90
2022-11-05T06:40:35.417Z,0.70
2022-11-05T06:43:01.666Z,0.95
2022-11-05T06:45:27.890Z,0.80
2022-11-05T06:47:57.420Z,0.70
2022-11-05T06:50:24.334Z,0.60
2022-11-05T06:53:00.614Z,0.80
2022-11-05T06:55:28.693Z,0.68
2022-11-05T06:57:55.335Z,0.60
2022-11-05T07:00:21.940Z,0.80
2022-11-05T07:02:48.534Z,0.73
2022-11-05T07:05:15.341Z,0.80
2022-11-05T07:07:42.448Z,0.70
2022-11-05T07:10:11.420Z,0.70
2022-11-05T07:12:37.637Z,0.80
2022-11-05T07:15:04.159Z,0.90
2022-11-05T07:17:30.531Z,0.80
2022-11-05T07:19:56.745Z,0.57
2022-11-05T07:22:23.037Z,0.75
2022-11-05T07:24:50.158Z,0.60
2022-11-05T07:27:16.845Z,0.73
2022-11-05T07:29:43.120Z,0.77
2022-11-05T07:32:09.394Z,0.77
2022-11-05T07:34:35.641Z,0.70
2022-11-05T07:37:01.887Z,0.80
2022-11-05T07:39:28.119Z,0.77
2022-11-05T07:41:54.988Z,0.80
2022-11-05T07:44:21.656Z,0.73
2022-11-05T07:46:47.910Z,0.80
2022-11-05T07:49:14.122Z,1.00
2022-11-05T07:51:40.352Z,0.73
2022-11-05T07:54:06.626Z,0.85
2022-11-05T07:56:32.898Z,0.95
2022-11-05T07:58:59.264Z,0.80
2022-11-05T08:01:25.691Z,0.70
2022-11-05T08:03:52.079Z,0.52
2022-11-05T08:06:18.429Z,0.60
2022-11-05T08:08:44.729Z,0.90
2022-11-05T08:11:11.089Z,0.70
2022-11-05T08:13:37.322Z,0.88
2022-11-05T08:16:03.777Z,0.70
2022-11-05T08:18:34.071Z,0.60
2022-11-05T08:23:27.133Z,0.85
2022-11-05T08:25:53.808Z,0.88
2022-11-05T08:28:21.764Z,0.75
2022-11-05T08:30:48.635Z,0.88
2022-11-05T08:33:15.256Z,0.98
2022-11-05T08:35:41.591Z,1.10
2022-11-05T08:38:09.797Z,0.98
2022-11-05T08:40:36.754Z,0.80
2022-11-05T08:43:04.020Z,1.00
2022-11-05T08:45:30.373Z,1.00
2022-11-05T08:48:06.868Z,0.95
2022-11-05T08:50:33.463Z,0.80
2022-11-05T08:52:59.750Z,1.00
2022-11-05T08:55:26.490Z,1.20
2022-11-05T08:57:59.348Z,0.98
2022-11-05T09:00:26.583Z,1.00
2022-11-05T09:02:52.876Z,1.02
2022-11-05T09:05:19.132Z,1.25
2022-11-05T09:07:46.644Z,1.00
2022-11-05T09:10:13.171Z,0.73
2022-11-05T09:12:39.389Z,0.90
2022-11-05T09:15:05.792Z,0.82
2022-11-05T09:17:32.032Z,0.98
2022-11-05T09:19:58.590Z,1.17
2022-11-05T09:22:24.812Z,1.40
2022-11-05T09:24:51.046Z,1.23
2022-11-05T09:27:17.930Z,0.90
2022-11-05T09:29:44.191Z,1.10
2022-11-05T09:32:10.422Z,0.80
2022-11-05T09:34:36.653Z,1.23
2022-11-05T09:37:02.934Z,0.90
2022-11-05T09:39:29.593Z,0.90
2022-11-05T09:41:59.168Z,0.90
2022-11-05T09:44:27.565Z,1.10
2022-11-05T09:46:58.478Z,1.13
2022-11-05T09:49:29.372Z,1.17
2022-11-05T09:51:57.275Z,1.17
2022-11-05T09:54:28.716Z,1.20
2022-11-05T09:56:55.374Z,1.08
2022-11-05T09:59:24.229Z,1.20
2022-11-05T10:01:52.284Z,0.90
2022-11-05T10:04:20.698Z,1.00
2022-11-05T10:06:58.439Z,0.93
2022-11-05T10:09:26.481Z,1.08
2022-11-05T10:12:11.961Z,0.98
2022-11-05T10:14:47.218Z,0.90
2022-11-05T10:17:18.111Z,1.20
2022-11-05T10:19:47.443Z,1.42
2022-11-05T10:22:16.335Z,1.00
2022-11-05T10:24:43.917Z,1.23
2022-11-05T10:27:14.800Z,1.38
2022-11-05T10:29:42.475Z,1.23
2022-11-05T10:32:12.236Z,1.02
2022-11-05T10:34:39.145Z,1.10
2022-11-05T10:37:05.520Z,1.20
2022-11-05T10:39:32.431Z,1.50
2022-11-05T10:42:17.254Z,0.82
2022-11-05T10:45:01.501Z,1.25
2022-11-05T10:47:35.278Z,1.33
2022-11-05T10:50:02.639Z,1.30
2022-11-05T10:52:33.950Z,1.25
2022-11-05T10:55:23.520Z,1.02
2022-11-05T10:57:49.820Z,1.20
2022-11-05T11:00:19.063Z,1.33
2022-11-05T11:02:48.033Z,1.48
2022-11-05T11:05:22.307Z,1.15
2022-11-05T11:07:56.523Z,1.38
2022-11-05T11:10:23.021Z,1.42
2022-11-05T11:12:50.242Z,0.90
2022-11-05T11:15:22.330Z,1.23
2022-11-05T11:17:48.658Z,1.00
2022-11-05T11:20:20.901Z,1.17
2022-11-05T11:23:06.042Z,1.10
2022-11-05T11:25:41.486Z,1.30
2022-11-05T11:28:14.181Z,1.27
2022-11-05T11:30:46.649Z,1.25
2022-11-05T11:33:13.341Z,0.90
2022-11-05T11:35:45.342Z,1.13
2022-11-05T11:38:13.963Z,1.17
2022-11-05T11:40:40.617Z,1.35
2022-11-05T11:43:14.206Z,1.17
2022-11-05T11:45:45.170Z,1.20
2022-11-05T11:48:18.085Z,1.60
2022-11-05T11:50:45.328Z,1.10
2022-11-05T11:53:25.832Z,1.15
2022-11-05T11:55:54.929Z,1.35
2022-11-05T11:58:34.977Z,1.20
2022-11-05T12:01:06.318Z,1.50
2022-11-05T12:03:47.969Z,0.95
2022-11-05T12:06:35.275Z,1.00
2022-11-05T12:09:06.665Z,1.45
2022-11-05T12:11:39.026Z,1.30
2022-11-05T12:14:05.252Z,1.00
2022-11-05T12:16:38.999Z,1.27
2022-11-05T12:19:15.070Z,1.15
2022-11-05T12:22:00.237Z,1.10
2022-11-05T12:24:26.450Z,1.33
2022-11-05T12:27:05.889Z,1.02
2022-11-05T12:29:50.923Z,1.17
2022-11-05T12:32:27.515Z,1.65
2022-11-05T12:35:18.111Z,1.38
2022-11-05T12:38:05.319Z,1.10
2022-11-05T12:40:52.392Z,1.15
2022-11-05T12:43:36.602Z,1.13
2022-11-05T12:46:21.362Z,1.30
2022-11-05T12:48:47.613Z,1.42
2022-11-05T12:51:39.160Z,0.98
2022-11-05T12:54:05.414Z,1.13
2022-11-05T12:56:47.042Z,1.20
2022-11-05T12:59:19.440Z,0.98
2022-11-05T13:01:50.520Z,1.13
2022-11-05T13:04:31.618Z,1.00
2022-11-05T13:07:00.609Z,1.20
2022-11-05T13:09:34.391Z,1.27
2022-11-05T13:12:04.168Z,1.25
2022-11-05T13:14:36.370Z,1.10
2022-11-05T13:17:02.560Z,1.20
2022-11-05T13:19:29.166Z,1.40
2022-11-05T13:22:14.205Z,1.30
2022-11-05T13:24:47.216Z,1.05
2022-11-05T13:27:16.237Z,1.00
2022-11-05T13:29:47.545Z,1.30
2022-11-05T13:32:25.688Z,1.30
2022-11-05T13:34:54.953Z,1.40
2022-11-05T13:37:42.825Z,1.30
2022-11-05T13:40:10.875Z,1.20
2022-11-05T13:43:00.208Z,1.00
2022-11-05T13:45:38.848Z,1.17
2022-11-05T13:48:23.161Z,1.02
2022-11-05T13:50:52.431Z,1.20
2022-11-05T13:53:39.505Z,1.05
2022-11-05T13:56:11.997Z,1.10
2022-11-05T13:58:44.241Z,1.20
2022-11-05T14:01:19.654Z,1.20
2022-11-05T14:03:49.984Z,1.45
2022-11-05T14:08:46.138Z,1.30
2022-11-05T14:11:23.808Z,1.38
2022-11-05T14:13:52.788Z,1.30
2022-11-05T14:16:20.255Z,1.30
2022-11-05T14:18:48.211Z,1.35
2022-11-05T14:21:28.882Z,1.25
2022-11-05T14:23:56.626Z,1.08
2022-11-05T14:26:24.628Z,1.20
2022-11-05T14:29:10.837Z,1.35
2022-11-05T14:32:10.135Z,1.00
2022-11-05T14:34:41.153Z,1.20
2022-11-05T14:37:10.425Z,1.15
2022-11-05T14:39:36.733Z,1.10
2022-11-05T14:42:06.077Z,0.95
2022-11-05T14:44:34.088Z,1.43
2022-11-05T14:47:02.324Z,1.30
2022-11-05T14:49:33.774Z,1.10
2022-11-05T14:52:04.694Z,1.20
2022-11-05T14:54:41.337Z,1.08
2022-11-05T14:57:11.401Z,1.10
2022-11-05T14:59:51.714Z,1.10
2022-11-05T15:04:45.537Z,1.20
2022-11-05T15:07:13.616Z,1.15
2022-11-05T15:09:41.446Z,1.38
2022-11-05T15:12:19.698Z,1.50
2022-11-05T15:14:48.751Z,1.30
2022-11-05T15:17:30.127Z,1.40
2022-11-05T15:20:15.321Z,1.33
2022-11-05T15:22:43.478Z,1.35
2022-11-05T15:25:17.741Z,1.52
2022-11-05T15:27:56.886Z,1.17
2022-11-05T15:30:23.798Z,1.45
2022-11-05T15:32:50.589Z,1.20
2022-11-05T15:35:26.967Z,1.20
2022-11-05T15:38:00.406Z,1.33
2022-11-05T15:40:30.643Z,1.52
2022-11-05T15:43:09.310Z,1.33
2022-11-05T15:45:35.894Z,1.27
2022-11-05T15:48:02.154Z,1.42
2022-11-05T15:50:28.805Z,1.27
2022-11-05T15:52:56.661Z,1.10
2022-11-05T15:55:27.631Z,1.20
2022-11-05T15:58:06.873Z,1.42
2022-11-05T16:00:34.580Z,1.20
2022-11-05T16:03:04.331Z,1.40
2022-11-05T16:05:32.256Z,1.25
2022-11-05T16:07:59.634Z,1.42
2022-11-05T16:10:29.982Z,1.30
2022-11-05T16:15:23.876Z,1.30
2022-11-05T16:17:50.477Z,1.50
2022-11-05T16:20:24.471Z,1.25
2022-11-05T16:22:52.655Z,1.05
2022-11-05T16:25:21.799Z,1.20
2022-11-05T16:27:48.097Z,1.50
2022-11-05T16:30:18.334Z,1.60
2022-11-05T16:35:18.748Z,1.40
2022-11-05T16:37:50.692Z,1.20
2022-11-05T16:40:19.584Z,1.40
2022-11-05T16:42:48.351Z,1.40
2022-11-05T16:45:16.062Z,1.48
2022-11-05T16:47:42.960Z,1.35
2022-11-05T16:50:21.194Z,1.45
2022-11-05T16:52:47.428Z,1.40
2022-11-05T16:55:14.288Z,1.20
2022-11-05T16:57:41.948Z,1.20
2022-11-05T17:00:10.968Z,1.30
2022-11-05T17:02:37.373Z,1.35
2022-11-05T17:05:03.803Z,1.05
2022-11-05T17:07:30.058Z,1.67
2022-11-05T17:09:56.285Z,1.80
2022-11-05T17:12:22.525Z,1.00
2022-11-05T17:14:48.784Z,1.50
2022-11-05T17:17:15.016Z,1.38
2022-11-05T17:19:42.573Z,1.27
2022-11-05T17:22:09.224Z,1.45
2022-11-05T17:24:35.532Z,1.42
2022-11-05T17:27:01.771Z,1.65
2022-11-05T17:29:28.002Z,1.48
2022-11-05T17:31:54.232Z,1.70
2022-11-05T17:34:20.526Z,1.90
2022-11-05T17:36:46.758Z,1.55
2022-11-05T17:39:12.972Z,1.40
2022-11-05T17:41:39.561Z,1.35
2022-11-05T17:44:05.794Z,1.52
2022-11-05T17:46:32.112Z,1.60
2022-11-05T17:48:58.405Z,1.60
2022-11-05T17:51:24.675Z,1.40
2022-11-05T17:53:51.059Z,1.90
2022-11-05T17:56:28.931Z,1.73
2022-11-05T17:59:00.204Z,1.80
2022-11-05T18:01:27.965Z,1.75
2022-11-05T18:03:54.601Z,1.70
2022-11-05T18:06:20.859Z,1.85
2022-11-05T18:08:47.344Z,1.90
2022-11-05T18:11:13.666Z,1.95
2022-11-05T18:13:39.901Z,1.90
2022-11-05T18:16:06.302Z,1.98
2022-11-05T18:18:32.542Z,1.85
2022-11-05T18:20:59.106Z,1.90
2022-11-05T18:23:25.449Z,2.22
2022-11-05T18:25:51.886Z,2.05
2022-11-05T18:28:18.124Z,2.25
2022-11-05T18:30:44.348Z,2.28
2022-11-05T18:33:10.890Z,1.95
2022-11-05T18:35:41.610Z,2.40
2022-11-05T18:38:07.880Z,1.55
2022-11-05T18:40:34.118Z,2.30
2022-11-05T18:43:00.532Z,2.40
2022-11-05T18:45:29.712Z,2.33
2022-11-05T18:47:56.337Z,2.40
2022-11-05T18:50:22.632Z,1.88
2022-11-05T18:52:48.918Z,2.08
2022-11-05T18:55:15.185Z,2.40
2022-11-05T18:57:41.404Z,2.55
2022-11-05T19:00:08.154Z,1.92
2022-11-05T19:02:34.466Z,1.95
2022-11-05T19:05:30.305Z,2.00
2022-11-05T19:07:47.531Z,1.92
2022-11-05T19:10:13.960Z,2.30
2022-11-05T19:12:40.302Z,2.28
2022-11-05T19:15:07.393Z,2.40
2022-11-05T19:17:33.765Z,2.30
2022-11-05T19:20:00.159Z,2.35
2022-11-05T19:22:26.586Z,2.38
2022-11-05T19:24:52.942Z,2.30
2022-11-05T19:27:19.218Z,2.05
2022-11-05T19:29:46.482Z,2.28
2022-11-05T19:32:12.740Z,1.98
2022-11-05T19:34:39.005Z,2.17
2022-11-05T19:37:07.982Z,2.30
2022-11-05T19:39:35.069Z,2.33
2022-11-05T19:42:03.901Z,2.38
2022-11-05T19:44:30.931Z,2.50
2022-11-05T19:46:57.433Z,2.05
2022-11-05T19:49:23.769Z,2.25
2022-11-05T19:51:50.059Z,2.13
2022-11-05T19:54:16.905Z,2.00
2022-11-05T19:56:43.171Z,2.53
2022-11-05T19:59:10.917Z,2.08
2022-11-05T20:01:37.345Z,2.25
2022-11-05T20:04:04.672Z,2.05
2022-11-05T20:06:33.235Z,2.13
2022-11-05T20:11:48.313Z,2.13
2022-11-05T20:14:14.599Z,2.33
2022-11-05T20:16:42.211Z,2.15
2022-11-05T20:19:13.782Z,1.88
2022-11-05T20:21:40.324Z,1.90
2022-11-05T20:24:06.793Z,2.30
2022-11-05T20:26:33.287Z,2.45
2022-11-05T20:28:59.626Z,2.10
2022-11-05T20:31:25.893Z,2.30
2022-11-05T20:33:53.268Z,2.17
2022-11-05T20:36:20.484Z,2.13
2022-11-05T20:38:50.552Z,2.42
2022-11-05T20:41:16.861Z,2.10
2022-11-05T20:43:43.274Z,1.98
2022-11-05T20:46:11.084Z,2.10
2022-11-05T20:48:37.305Z,2.15
2022-11-05T20:51:07.953Z,2.58
2022-11-05T20:53:34.586Z,2.15
2022-11-05T20:56:06.562Z,1.95
2022-11-05T20:58:34.109Z,1.90
2022-11-05T21:01:00.446Z,2.03
2022-11-05T21:03:27.189Z,1.90
2022-11-05T21:05:56.291Z,2.30
2022-11-05T21:08:22.893Z,1.88
2022-11-05T21:10:51.433Z,2.13
2022-11-05T21:13:18.053Z,2.20
2022-11-05T21:15:49.074Z,2.10
2022-11-05T21:18:15.442Z,1.90
2022-11-05T21:20:41.717Z,1.80
2022-11-05T21:23:07.973Z,1.98
2022-11-05T21:25:37.069Z,2.30
2022-11-05T21:28:03.310Z,2.05
2022-11-05T21:30:29.549Z,2.38
2022-11-05T21:32:55.781Z,2.10
2022-11-05T21:35:21.988Z,2.13
2022-11-05T21:37:48.219Z,2.05
2022-11-05T21:40:14.523Z,1.95
2022-11-05T21:42:40.759Z,1.98
2022-11-05T21:45:07.217Z,2.10
2022-11-05T21:47:33.530Z,2.00
2022-11-05T21:49:59.765Z,2.08
2022-11-05T21:52:44.548Z,1.95
2022-11-05T21:55:30.205Z,2.08
2022-11-05T21:58:15.956Z,1.70
2022-11-05T22:00:42.249Z,1.83
2022-11-05T22:03:08.475Z,2.10
2022-11-05T22:05:34.826Z,2.00
2022-11-05T22:08:01.082Z,2.10
2022-11-05T22:10:27.326Z,1.85
2022-11-05T22:12:53.617Z,1.80
2022-11-05T22:15:19.886Z,2.10
2022-11-05T22:17:48.957Z,2.03
2022-11-05T22:20:15.582Z,2.05
2022-11-05T22:22:41.899Z,1.80
2022-11-05T22:25:08.317Z,1.90
2022-11-05T22:27:34.695Z,1.70
2022-11-05T22:30:00.983Z,1.75
2022-11-05T22:32:27.233Z,2.55
2022-11-05T22:34:53.498Z,2.08
2022-11-05T22:37:19.742Z,2.40
2022-11-05T22:39:45.947Z,2.22
2022-11-05T22:42:12.457Z,2.63
2022-11-05T22:44:38.766Z,2.00
2022-11-05T22:47:05.614Z,2.20
2022-11-05T22:49:32.259Z,1.90
2022-11-05T22:51:58.546Z,1.85
2022-11-05T22:54:24.766Z,1.77
2022-11-05T22:56:52.488Z,2.08
2022-11-05T22:59:19.179Z,2.40
2022-11-05T23:01:46.271Z,2.15
2022-11-05T23:04:13.329Z,1.63
2022-11-05T23:06:58.298Z,1.92
2022-11-05T23:09:52.695Z,2.13
2022-11-05T23:12:20.937Z,2.35
2022-11-05T23:14:47.270Z,2.10
2022-11-05T23:17:31.938Z,2.05
2022-11-05T23:20:16.589Z,2.00
2022-11-05T23:23:01.208Z,1.90
2022-11-05T23:25:27.456Z,2.22
2022-11-05T23:27:54.212Z,2.13
2022-11-05T23:30:21.687Z,1.85
2022-11-05T23:32:48.330Z,2.00
2022-11-05T23:35:14.742Z,1.92
2022-11-05T23:37:59.624Z,1.92
2022-11-05T23:40:28.927Z,2.20
2022-11-05T23:43:13.579Z,1.98
2022-11-05T23:45:58.869Z,2.47
2022-11-05T23:48:35.122Z,2.25
2022-11-05T23:51:09.025Z,1.88
2022-11-05T23:53:36.285Z,1.85
2022-11-05T23:56:04.318Z,1.80
2022-11-05T23:58:30.564Z,1.67
